Time;durP1;ratioP1;P1;durP2;ratioP2;P2;SDS_P1;SDS_P2;PMS_P1;PMS_P2;Temp;Humidity;BMP_temperature;BMP_pressure;BME280_temperature;BME280_humidity;BME280_pressure;Samples;Min_cycle;Max_cycle;Signal;HPM_P1;HPM_P2
2022/09/16 00:01:00;;;;;;;;;;;23.20;53.30;;;;;;5097726;28;19962;-61
2022/09/16 00:03:27;;;;;;;;;;;23.20;53.30;;;;;;5112565;28;19920;-61
2022/09/16 00:05:53;;;;;;;;;;;23.20;53.30;;;;;;5097924;28;19926;-61
2022/09/16 00:08:21;;;;;;;;;;;23.20;53.20;;;;;;5095170;28;19919;-61
2022/09/16 00:10:48;;;;;;;;;;;23.20;53.30;;;;;;5093750;28;19955;-61
2022/09/16 00:13:15;;;;;;;;;;;23.20;53.30;;;;;;5131811;27;19920;-61
2022/09/16 00:15:42;;;;;;;;;;;23.20;53.30;;;;;;5113949;28;19973;-61
2022/09/16 00:18:09;;;;;;;;;;;23.20;53.30;;;;;;5112874;28;19951;-61
2022/09/16 00:20:36;;;;;;;;;;;23.20;53.30;;;;;;5115395;28;20399;-61
2022/09/16 00:23:03;;;;;;;;;;;23.20;53.30;;;;;;5094871;28;19941;-61
2022/09/16 00:25:31;;;;;;;;;;;23.20;53.30;;;;;;5131758;27;19919;-61
2022/09/16 00:27:57;;;;;;;;;;;23.20;53.30;;;;;;5128229;27;19927;-61
2022/09/16 00:30:24;;;;;;;;;;;23.20;53.30;;;;;;5126176;27;19920;-61
2022/09/16 00:32:51;;;;;;;;;;;23.20;53.30;;;;;;5094295;28;19959;-61
2022/09/16 00:35:18;;;;;;;;;;;23.20;53.30;;;;;;5093249;28;19927;-61
2022/09/16 00:37:44;;;;;;;;;;;23.20;53.30;;;;;;5083408;28;20392;-61
2022/09/16 00:40:11;;;;;;;;;;;23.20;53.30;;;;;;5095312;28;19949;-61
2022/09/16 00:42:39;;;;;;;;;;;23.20;53.30;;;;;;5112575;28;20376;-61
2022/09/16 00:45:13;;;;;;;;;;;23.20;53.20;;;;;;5113284;28;19928;-61
2022/09/16 00:47:41;;;;;;;;;;;23.20;53.30;;;;;;5129555;27;19919;-60
2022/09/16 00:50:08;;;;;;;;;;;23.20;53.30;;;;;;5094910;28;20395;-60
2022/09/16 00:52:35;;;;;;;;;;;23.20;53.30;;;;;;5097302;28;19920;-60
2022/09/16 00:55:03;;;;;;;;;;;23.20;53.30;;;;;;5129167;27;19924;-61
2022/09/16 00:57:30;;;;;;;;;;;23.20;53.30;;;;;;5131208;27;19919;-61
2022/09/16 00:59:58;;;;;;;;;;;23.20;53.20;;;;;;5094976;28;19920;-61
2022/09/16 01:02:25;;;;;;;;;;;23.20;53.30;;;;;;5094558;28;19971;-61
2022/09/16 01:04:53;;;;;;;;;;;23.20;53.20;;;;;;5096915;28;20358;-60
2022/09/16 01:07:22;;;;;;;;;;;23.20;53.20;;;;;;5095334;28;19920;-61
2022/09/16 01:09:49;;;;;;;;;;;23.20;53.20;;;;;;5093285;28;19920;-61
2022/09/16 01:12:15;;;;;;;;;;;23.20;53.20;;;;;;5114826;28;19928;-60
2022/09/16 01:14:55;;;;;;;;;;;23.20;53.20;;;;;;5094501;28;19973;-60
2022/09/16 01:17:27;;;;;;;;;;;23.20;53.80;;;;;;5094323;28;19920;-60
2022/09/16 01:20:02;;;;;;;;;;;23.20;53.20;;;;;;5114118;28;20000;-60
2022/09/16 01:22:34;;;;;;;;;;;23.20;53.20;;;;;;5094220;28;19920;-61
2022/09/16 01:25:03;;;;;;;;;;;23.20;53.20;;;;;;5113095;28;20313;-61
2022/09/16 01:27:33;;;;;;;;;;;23.20;53.20;;;;;;5112137;28;19976;-61
2022/09/16 01:30:07;;;;;;;;;;;23.20;53.20;;;;;;5096468;28;19920;-60
2022/09/16 01:32:39;;;;;;;;;;;23.20;53.20;;;;;;5094119;28;19923;-60
2022/09/16 01:35:13;;;;;;;;;;;23.20;53.30;;;;;;5094545;28;19920;-61
2022/09/16 01:37:42;;;;;;;;;;;23.20;53.20;;;;;;5107720;28;19920;-60
2022/09/16 01:40:09;;;;;;;;;;;23.20;53.20;;;;;;5083231;28;20441;-61
2022/09/16 01:42:37;;;;;;;;;;;23.20;53.20;;;;;;5091174;28;19961;-61
2022/09/16 01:45:06;;;;;;;;;;;23.20;53.20;;;;;;5107152;28;19973;-60
2022/09/16 01:47:34;;;;;;;;;;;23.20;53.20;;;;;;5097327;28;19959;-61
2022/09/16 01:50:03;;;;;;;;;;;23.20;53.20;;;;;;5100588;28;19919;-60
2022/09/16 01:52:34;;;;;;;;;;;23.20;53.20;;;;;;5097333;28;19972;-61
2022/09/16 01:55:01;;;;;;;;;;;23.20;53.20;;;;;;5097883;28;19961;-60
2022/09/16 01:57:29;;;;;;;;;;;23.20;53.20;;;;;;5116062;28;19923;-60
2022/09/16 01:59:56;;;;;;;;;;;23.20;53.20;;;;;;5134479;27;19920;-61
2022/09/16 02:02:24;;;;;;;;;;;23.20;53.20;;;;;;5097459;28;19958;-61
2022/09/16 02:04:53;;;;;;;;;;;23.20;53.80;;;;;;5132818;27;20299;-61
2022/09/16 02:07:22;;;;;;;;;;;23.20;53.20;;;;;;5116145;28;19954;-60
2022/09/16 02:09:49;;;;;;;;;;;23.20;53.20;;;;;;5100008;28;19920;-61
2022/09/16 02:12:23;;;;;;;;;;;23.20;53.20;;;;;;5078652;28;19958;-60
2022/09/16 02:14:50;;;;;;;;;;;23.20;53.20;;;;;;5077175;28;19920;-61
2022/09/16 02:17:17;;;;;;;;;;;23.20;53.20;;;;;;5078982;28;20026;-61
2022/09/16 02:19:44;;;;;;;;;;;23.20;53.20;;;;;;5077029;28;19920;-61
2022/09/16 02:22:12;;;;;;;;;;;23.20;53.20;;;;;;5115440;28;19955;-61
2022/09/16 02:24:40;;;;;;;;;;;23.20;53.20;;;;;;5098011;28;19978;-61
2022/09/16 02:27:09;;;;;;;;;;;23.20;53.20;;;;;;5095897;28;19926;-61
2022/09/16 02:29:37;;;;;;;;;;;23.20;53.20;;;;;;5099089;28;20444;-61
2022/09/16 02:32:03;;;;;;;;;;;23.20;53.20;;;;;;5098093;28;19956;-60
2022/09/16 02:34:31;;;;;;;;;;;23.20;53.20;;;;;;5115477;28;19919;-61
2022/09/16 02:36:58;;;;;;;;;;;23.20;53.20;;;;;;5098053;28;19959;-61
2022/09/16 02:39:26;;;;;;;;;;;23.20;53.20;;;;;;5115164;28;19919;-60
2022/09/16 02:41:55;;;;;;;;;;;23.20;53.20;;;;;;5128147;27;19965;-60
2022/09/16 02:44:22;;;;;;;;;;;23.20;53.20;;;;;;5102093;28;19920;-61
2022/09/16 02:46:51;;;;;;;;;;;23.20;53.20;;;;;;5133201;27;20030;-61
2022/09/16 02:49:18;;;;;;;;;;;23.20;53.20;;;;;;5096188;27;19980;-61
2022/09/16 02:51:46;;;;;;;;;;;23.20;53.20;;;;;;5129111;27;19919;-60
2022/09/16 02:54:14;;;;;;;;;;;23.20;53.20;;;;;;5117297;28;20018;-61
2022/09/16 02:56:41;;;;;;;;;;;23.20;53.20;;;;;;5097268;28;19926;-59
2022/09/16 02:59:10;;;;;;;;;;;23.20;53.20;;;;;;5096425;28;19923;-61
2022/09/16 03:01:38;;;;;;;;;;;23.20;53.20;;;;;;5098381;28;19920;-61
2022/09/16 03:04:05;;;;;;;;;;;23.20;53.20;;;;;;5096714;28;20380;-59
2022/09/16 03:06:34;;;;;;;;;;;23.20;53.20;;;;;;5098236;28;19920;-61
2022/09/16 03:09:01;;;;;;;;;;;23.20;53.20;;;;;;5098664;28;19935;-61
2022/09/16 03:11:30;;;;;;;;;;;23.20;53.20;;;;;;5095438;28;19920;-60
2022/09/16 03:14:02;;;;;;;;;;;23.20;53.20;;;;;;5098618;28;19973;-61
2022/09/16 03:16:31;;;;;;;;;;;23.20;53.10;;;;;;5079307;28;19963;-61
2022/09/16 03:19:00;;;;;;;;;;;23.20;53.10;;;;;;5098029;28;19919;-60
2022/09/16 03:21:29;;;;;;;;;;;23.20;53.20;;;;;;5114906;28;19955;-60
2022/09/16 03:23:56;;;;;;;;;;;23.20;53.20;;;;;;5088089;28;19920;-60
2022/09/16 03:26:25;;;;;;;;;;;23.20;53.10;;;;;;5094753;28;20265;-61
2022/09/16 03:28:54;;;;;;;;;;;23.20;53.20;;;;;;5094444;28;19946;-60
2022/09/16 03:31:23;;;;;;;;;;;23.20;53.20;;;;;;5109975;28;20010;-60
2022/09/16 03:33:53;;;;;;;;;;;23.20;53.10;;;;;;5110994;28;19965;-60
2022/09/16 03:36:20;;;;;;;;;;;23.20;53.10;;;;;;5086345;28;19920;-61
2022/09/16 03:38:47;;;;;;;;;;;23.20;53.20;;;;;;5077917;28;20404;-61
2022/09/16 03:41:14;;;;;;;;;;;23.20;53.10;;;;;;5075845;28;19932;-60
2022/09/16 03:43:40;;;;;;;;;;;23.20;53.10;;;;;;5094562;28;20018;-61
2022/09/16 03:46:09;;;;;;;;;;;23.20;53.10;;;;;;5077964;28;19920;-61
2022/09/16 03:48:36;;;;;;;;;;;23.20;53.20;;;;;;5097717;28;19920;-61
2022/09/16 03:51:04;;;;;;;;;;;23.20;53.10;;;;;;5078047;28;19931;-61
2022/09/16 03:53:31;;;;;;;;;;;23.20;53.10;;;;;;5080111;28;19962;-60
2022/09/16 03:55:57;;;;;;;;;;;23.20;53.10;;;;;;5098179;28;19923;-61
2022/09/16 03:58:24;;;;;;;;;;;23.20;53.10;;;;;;5095519;28;19942;-61
2022/09/16 04:00:51;;;;;;;;;;;23.20;53.20;;;;;;5115598;28;19927;-61
2022/09/16 04:03:17;;;;;;;;;;;23.20;53.10;;;;;;5095171;28;19920;-61
2022/09/16 04:05:44;;;;;;;;;;;23.10;53.10;;;;;;5130208;27;19945;-61
2022/09/16 04:08:12;;;;;;;;;;;23.20;53.10;;;;;;5130937;27;19926;-61
2022/09/16 04:10:39;;;;;;;;;;;23.20;53.10;;;;;;5111930;28;20006;-61
2022/09/16 04:13:06;;;;;;;;;;;23.20;53.10;;;;;;5097371;28;19951;-61
2022/09/16 04:15:36;;;;;;;;;;;23.20;53.10;;;;;;5094875;28;19926;-61
2022/09/16 04:18:02;;;;;;;;;;;23.20;53.10;;;;;;5097767;28;19924;-61
2022/09/16 04:20:29;;;;;;;;;;;23.20;53.10;;;;;;5112731;28;19923;-61
2022/09/16 04:22:56;;;;;;;;;;;23.20;53.10;;;;;;5097951;28;19965;-61
2022/09/16 04:25:24;;;;;;;;;;;23.20;53.10;;;;;;5094394;28;19927;-61
2022/09/16 04:27:50;;;;;;;;;;;23.20;53.10;;;;;;5095775;28;19955;-61
2022/09/16 04:30:17;;;;;;;;;;;23.20;53.10;;;;;;5113423;28;20322;-61
2022/09/16 04:32:44;;;;;;;;;;;23.20;53.10;;;;;;5094803;28;19959;-60
2022/09/16 04:35:11;;;;;;;;;;;23.20;53.10;;;;;;5115421;28;19927;-61
2022/09/16 04:37:37;;;;;;;;;;;23.20;53.10;;;;;;5113536;28;19920;-61
2022/09/16 04:40:04;;;;;;;;;;;23.20;53.10;;;;;;5095039;28;20014;-61
2022/09/16 04:42:32;;;;;;;;;;;23.20;53.10;;;;;;5113269;27;19950;-60
2022/09/16 04:44:59;;;;;;;;;;;23.20;53.10;;;;;;5075374;28;19977;-59
2022/09/16 04:47:27;;;;;;;;;;;23.20;53.10;;;;;;5101348;28;19959;-60
2022/09/16 04:49:54;;;;;;;;;;;23.20;53.10;;;;;;5094959;28;20002;-60
2022/09/16 04:52:21;;;;;;;;;;;23.20;53.10;;;;;;5096827;28;19969;-61
2022/09/16 04:54:47;;;;;;;;;;;23.20;53.10;;;;;;5095260;28;19965;-61
2022/09/16 04:57:14;;;;;;;;;;;23.20;53.10;;;;;;5094884;28;19920;-60
2022/09/16 04:59:42;;;;;;;;;;;23.20;53.10;;;;;;5111942;28;20041;-61
2022/09/16 05:02:09;;;;;;;;;;;23.20;53.10;;;;;;5097508;28;20023;-61
2022/09/16 05:04:36;;;;;;;;;;;23.20;53.10;;;;;;5112372;28;19926;-61
2022/09/16 05:07:02;;;;;;;;;;;23.20;53.10;;;;;;5094377;28;19972;-61
2022/09/16 05:09:29;;;;;;;;;;;23.20;53.10;;;;;;5096026;28;19930;-60
2022/09/16 05:11:56;;;;;;;;;;;23.20;53.10;;;;;;5129395;27;19967;-61
2022/09/16 05:14:23;;;;;;;;;;;23.20;53.10;;;;;;5130599;27;19920;-61
2022/09/16 05:16:51;;;;;;;;;;;23.20;53.10;;;;;;5094229;28;19923;-61
2022/09/16 05:19:17;;;;;;;;;;;23.20;53.10;;;;;;5094331;28;19966;-60
2022/09/16 05:21:44;;;;;;;;;;;23.20;53.10;;;;;;5096040;28;19993;-61
2022/09/16 05:24:12;;;;;;;;;;;23.20;53.10;;;;;;5094059;28;19942;-61
2022/09/16 05:26:40;;;;;;;;;;;23.10;53.00;;;;;;5094100;28;19926;-60
2022/09/16 05:29:07;;;;;;;;;;;23.20;53.10;;;;;;5092909;28;19942;-60
2022/09/16 05:31:37;;;;;;;;;;;23.10;53.00;;;;;;5096067;28;20277;-61
2022/09/16 05:34:06;;;;;;;;;;;23.20;53.00;;;;;;5094161;28;19926;-61
2022/09/16 05:36:33;;;;;;;;;;;23.20;53.60;;;;;;5095304;28;19923;-60
2022/09/16 05:39:00;;;;;;;;;;;23.20;53.10;;;;;;5094940;28;19962;-61
2022/09/16 05:41:27;;;;;;;;;;;23.20;53.00;;;;;;5095415;28;19942;-60
2022/09/16 05:43:56;;;;;;;;;;;23.20;53.00;;;;;;5114444;28;20323;-61
2022/09/16 05:46:23;;;;;;;;;;;23.20;53.00;;;;;;5112594;28;19926;-61
2022/09/16 05:48:50;;;;;;;;;;;23.20;53.00;;;;;;5093900;28;19920;-60
2022/09/16 05:51:19;;;;;;;;;;;23.20;53.00;;;;;;5095733;28;20022;-60
2022/09/16 05:53:45;;;;;;;;;;;23.20;53.00;;;;;;5093894;28;19980;-61
2022/09/16 05:56:12;;;;;;;;;;;23.20;53.00;;;;;;5094563;28;20336;-61
2022/09/16 05:58:39;;;;;;;;;;;23.20;53.00;;;;;;5094314;28;19920;-60
2022/09/16 06:01:06;;;;;;;;;;;23.20;53.00;;;;;;5114373;28;19920;-60
2022/09/16 06:03:33;;;;;;;;;;;23.20;53.00;;;;;;5089240;28;19920;-61
2022/09/16 06:06:00;;;;;;;;;;;23.10;53.00;;;;;;5096773;28;19920;-61
2022/09/16 06:08:29;;;;;;;;;;;23.20;53.00;;;;;;5094058;28;19920;-61
2022/09/16 06:10:56;;;;;;;;;;;23.20;53.00;;;;;;5094360;28;19958;-61
2022/09/16 06:13:22;;;;;;;;;;;23.20;53.60;;;;;;5093900;28;19969;-61
2022/09/16 06:15:50;;;;;;;;;;;23.20;53.00;;;;;;5111393;28;19923;-61
2022/09/16 06:18:17;;;;;;;;;;;23.20;53.00;;;;;;5114221;28;19993;-61
2022/09/16 06:20:44;;;;;;;;;;;23.20;53.00;;;;;;5093011;28;19919;-60
2022/09/16 06:23:10;;;;;;;;;;;23.20;53.10;;;;;;5130913;28;19924;-61
2022/09/16 06:25:38;;;;;;;;;;;23.20;53.00;;;;;;5129547;27;19962;-61
2022/09/16 06:28:05;;;;;;;;;;;23.20;53.00;;;;;;5097845;28;19919;-61
2022/09/16 06:30:32;;;;;;;;;;;23.20;53.00;;;;;;5099376;28;20015;-61
2022/09/16 06:32:58;;;;;;;;;;;23.20;53.00;;;;;;5097177;28;20019;-61
2022/09/16 06:35:25;;;;;;;;;;;23.20;53.00;;;;;;5117272;28;20010;-61
2022/09/16 06:37:53;;;;;;;;;;;23.20;53.00;;;;;;5115959;28;20020;-61
2022/09/16 06:40:20;;;;;;;;;;;23.20;53.00;;;;;;5117315;28;19923;-61
2022/09/16 06:42:48;;;;;;;;;;;23.20;53.00;;;;;;5078734;28;19919;-61
2022/09/16 06:45:15;;;;;;;;;;;23.20;53.00;;;;;;5099406;28;19934;-60
2022/09/16 06:47:42;;;;;;;;;;;23.20;53.00;;;;;;5096494;28;19977;-61
2022/09/16 06:50:09;;;;;;;;;;;23.20;53.00;;;;;;5098942;28;20010;-60
2022/09/16 06:52:35;;;;;;;;;;;23.20;53.00;;;;;;5097521;28;20272;-61
2022/09/16 06:55:02;;;;;;;;;;;23.20;53.00;;;;;;5098121;28;19926;-59
2022/09/16 06:57:29;;;;;;;;;;;23.20;53.00;;;;;;5098127;28;19919;-60
2022/09/16 06:59:57;;;;;;;;;;;23.20;53.00;;;;;;5095344;28;19920;-60
2022/09/16 07:02:23;;;;;;;;;;;23.20;53.00;;;;;;5096871;28;19954;-61
2022/09/16 07:04:50;;;;;;;;;;;23.20;53.00;;;;;;5114642;28;19962;-60
2022/09/16 07:07:17;;;;;;;;;;;23.20;53.00;;;;;;5095850;28;19970;-60
2022/09/16 07:09:44;;;;;;;;;;;23.20;53.60;;;;;;5096565;28;19920;-60
2022/09/16 07:12:10;;;;;;;;;;;23.20;53.00;;;;;;5099168;28;19924;-60
2022/09/16 07:14:37;;;;;;;;;;;23.20;53.00;;;;;;5129853;27;19919;-60
2022/09/16 07:17:07;;;;;;;;;;;23.20;53.00;;;;;;5099501;28;19974;-60
2022/09/16 07:19:34;;;;;;;;;;;23.20;53.00;;;;;;5096178;28;20000;-60
2022/09/16 07:22:01;;;;;;;;;;;23.20;53.00;;;;;;5116520;28;19959;-60
2022/09/16 07:24:27;;;;;;;;;;;23.20;53.00;;;;;;5129704;27;20093;-61
2022/09/16 07:26:54;;;;;;;;;;;23.20;52.90;;;;;;5096173;28;19927;-60
2022/09/16 07:29:21;;;;;;;;;;;23.20;53.00;;;;;;5098665;28;20013;-60
2022/09/16 07:31:48;;;;;;;;;;;23.20;53.00;;;;;;5096558;28;19919;-60
2022/09/16 07:34:16;;;;;;;;;;;23.20;53.00;;;;;;5116147;28;19920;-61
2022/09/16 07:36:43;;;;;;;;;;;23.20;53.00;;;;;;5096411;28;19967;-61
2022/09/16 07:39:10;;;;;;;;;;;23.20;53.00;;;;;;5114003;28;19920;-60
2022/09/16 07:41:37;;;;;;;;;;;23.20;53.00;;;;;;5116199;28;19943;-61
2022/09/16 07:44:04;;;;;;;;;;;23.20;53.00;;;;;;5129595;27;20265;-61
2022/09/16 07:46:31;;;;;;;;;;;23.20;53.00;;;;;;5096850;28;19959;-61
2022/09/16 07:48:58;;;;;;;;;;;23.20;53.00;;;;;;5094965;28;19999;-59
2022/09/16 07:51:26;;;;;;;;;;;23.20;53.00;;;;;;5096115;28;20382;-60
2022/09/16 07:53:53;;;;;;;;;;;23.20;53.00;;;;;;5115696;28;19987;-60
2022/09/16 07:56:21;;;;;;;;;;;23.20;53.00;;;;;;5093682;28;19955;-61
2022/09/16 07:58:48;;;;;;;;;;;23.20;53.00;;;;;;5098731;28;20338;-61
2022/09/16 08:01:15;;;;;;;;;;;23.20;53.00;;;;;;5095800;28;19951;-61
2022/09/16 08:03:42;;;;;;;;;;;23.20;53.00;;;;;;5093915;28;19919;-60
2022/09/16 08:06:11;;;;;;;;;;;23.20;53.00;;;;;;5097068;28;19980;-61
2022/09/16 08:08:39;;;;;;;;;;;23.20;53.00;;;;;;5095064;28;19921;-60
2022/09/16 08:11:06;;;;;;;;;;;23.20;53.00;;;;;;5096253;28;19959;-61
2022/09/16 08:13:33;;;;;;;;;;;23.20;53.00;;;;;;5096409;28;19974;-60
2022/09/16 08:16:00;;;;;;;;;;;23.20;53.00;;;;;;5097386;28;19926;-60
2022/09/16 08:18:27;;;;;;;;;;;23.20;53.00;;;;;;5096064;28;20314;-60
2022/09/16 08:20:53;;;;;;;;;;;23.20;52.90;;;;;;5097149;28;20018;-60
2022/09/16 08:23:20;;;;;;;;;;;23.20;53.00;;;;;;5122113;27;19967;-60
2022/09/16 08:25:48;;;;;;;;;;;23.20;53.00;;;;;;5095437;28;20002;-60
2022/09/16 08:28:15;;;;;;;;;;;23.20;53.00;;;;;;5097857;28;20006;-60
2022/09/16 08:30:42;;;;;;;;;;;23.20;53.00;;;;;;5129054;27;20364;-61
2022/09/16 08:33:08;;;;;;;;;;;23.20;52.90;;;;;;5131563;27;19976;-61
2022/09/16 08:35:35;;;;;;;;;;;23.20;53.00;;;;;;5115442;28;19962;-61
2022/09/16 08:38:02;;;;;;;;;;;23.20;53.00;;;;;;5129268;27;19920;-61
2022/09/16 08:40:32;;;;;;;;;;;23.20;53.00;;;;;;5115774;28;19920;-60
2022/09/16 08:43:02;;;;;;;;;;;23.20;53.00;;;;;;5092446;28;20436;-60
2022/09/16 08:45:29;;;;;;;;;;;23.20;53.00;;;;;;5112253;28;19965;-60
2022/09/16 08:48:01;;;;;;;;;;;23.20;53.00;;;;;;5114473;28;19919;-61
2022/09/16 08:50:29;;;;;;;;;;;23.20;53.00;;;;;;5094742;28;19920;-60
2022/09/16 08:52:56;;;;;;;;;;;23.20;53.00;;;;;;5095851;28;19919;-60
2022/09/16 08:55:24;;;;;;;;;;;23.20;53.00;;;;;;5113780;28;19934;-60
2022/09/16 08:57:53;;;;;;;;;;;23.20;52.90;;;;;;5096973;28;20004;-60
2022/09/16 09:00:21;;;;;;;;;;;23.20;53.00;;;;;;5096992;28;20361;-60
2022/09/16 09:02:49;;;;;;;;;;;23.20;53.00;;;;;;5094256;28;20416;-60
2022/09/16 09:05:17;;;;;;;;;;;23.20;53.00;;;;;;5096788;28;19955;-60
2022/09/16 09:07:48;;;;;;;;;;;23.20;53.00;;;;;;5112598;28;20013;-60
2022/09/16 09:10:17;;;;;;;;;;;23.20;53.00;;;;;;5113282;28;20348;-60
2022/09/16 09:12:45;;;;;;;;;;;23.20;53.00;;;;;;5095282;28;19924;-60
2022/09/16 09:15:21;;;;;;;;;;;23.20;53.00;;;;;;5094650;28;19976;-59
2022/09/16 09:17:53;;;;;;;;;;;23.20;53.60;;;;;;5114749;28;19920;-60
2022/09/16 09:20:22;;;;;;;;;;;23.20;53.00;;;;;;5095060;28;19927;-61
2022/09/16 09:22:57;;;;;;;;;;;23.20;53.00;;;;;;5096290;28;19920;-61
2022/09/16 09:25:27;;;;;;;;;;;23.20;53.00;;;;;;5112488;28;19920;-61
2022/09/16 09:27:56;;;;;;;;;;;23.20;53.00;;;;;;5129137;28;19924;-61
2022/09/16 09:30:23;;;;;;;;;;;23.20;53.00;;;;;;5096087;28;20018;-61
2022/09/16 09:32:54;;;;;;;;;;;23.20;53.00;;;;;;5093926;28;19958;-61
2022/09/16 09:35:22;;;;;;;;;;;23.20;53.00;;;;;;5097124;28;19955;-61
2022/09/16 09:38:01;;;;;;;;;;;23.20;53.00;;;;;;5093974;28;20010;-61
2022/09/16 09:40:31;;;;;;;;;;;23.20;53.00;;;;;;5094397;28;19919;-60
2022/09/16 09:43:00;;;;;;;;;;;23.20;53.00;;;;;;5097516;28;19970;-60
2022/09/16 09:45:28;;;;;;;;;;;23.20;53.00;;;;;;5094015;28;19990;-61
2022/09/16 09:47:57;;;;;;;;;;;23.20;53.00;;;;;;5114738;28;19958;-61
2022/09/16 09:50:24;;;;;;;;;;;23.20;53.00;;;;;;5110487;28;19919;-60
2022/09/16 09:52:53;;;;;;;;;;;23.20;53.00;;;;;;5093528;28;20288;-60
2022/09/16 09:55:21;;;;;;;;;;;23.20;53.00;;;;;;5096466;28;20365;-60
2022/09/16 09:58:00;;;;;;;;;;;23.20;53.00;;;;;;5094058;28;19941;-60
2022/09/16 10:00:26;;;;;;;;;;;23.20;53.00;;;;;;5112289;28;20031;-60
2022/09/16 10:03:01;;;;;;;;;;;23.20;53.00;;;;;;5108622;28;19919;-61
2022/09/16 10:05:30;;;;;;;;;;;23.20;53.00;;;;;;5118217;28;19926;-61
2022/09/16 10:07:58;;;;;;;;;;;23.20;53.00;;;;;;5097272;28;20097;-61
2022/09/16 10:10:25;;;;;;;;;;;23.20;53.00;;;;;;5098812;28;19958;-59
2022/09/16 10:12:51;;;;;;;;;;;23.20;53.00;;;;;;5099107;28;20026;-61
2022/09/16 10:15:20;;;;;;;;;;;23.20;53.00;;;;;;5097692;28;20018;-60
2022/09/16 10:17:48;;;;;;;;;;;23.20;53.00;;;;;;5118052;28;19972;-61
2022/09/16 10:20:22;;;;;;;;;;;23.20;53.00;;;;;;5132197;27;19980;-60
2022/09/16 10:22:54;;;;;;;;;;;23.20;53.00;;;;;;5098205;28;19923;-60
2022/09/16 10:25:23;;;;;;;;;;;23.20;53.00;;;;;;5098521;28;20439;-60
2022/09/16 10:27:54;;;;;;;;;;;23.20;52.90;;;;;;5098047;28;19919;-61
2022/09/16 10:30:21;;;;;;;;;;;23.20;52.90;;;;;;5099962;28;20014;-61
2022/09/16 10:32:49;;;;;;;;;;;23.20;52.90;;;;;;5122148;27;19920;-61
2022/09/16 10:35:20;;;;;;;;;;;23.20;53.00;;;;;;5079444;28;19928;-61
2022/09/16 10:37:49;;;;;;;;;;;23.20;52.90;;;;;;5085745;28;19920;-60
2022/09/16 10:40:18;;;;;;;;;;;23.20;52.90;;;;;;5117571;28;20022;-61
2022/09/16 10:42:46;;;;;;;;;;;23.20;53.00;;;;;;5097941;28;19930;-61
2022/09/16 10:45:14;;;;;;;;;;;23.20;53.00;;;;;;5097097;28;19919;-61
2022/09/16 10:47:41;;;;;;;;;;;23.20;52.90;;;;;;5099444;28;20360;-61
2022/09/16 10:50:08;;;;;;;;;;;23.20;52.90;;;;;;5097338;28;20021;-61
2022/09/16 10:52:40;;;;;;;;;;;23.20;52.90;;;;;;5097523;28;19931;-60
2022/09/16 10:55:12;;;;;;;;;;;23.30;53.00;;;;;;5116735;28;19958;-61
2022/09/16 10:57:41;;;;;;;;;;;23.20;52.90;;;;;;5131135;27;20288;-61
2022/09/16 11:00:12;;;;;;;;;;;23.20;52.90;;;;;;5097288;28;19927;-61
2022/09/16 11:02:46;;;;;;;;;;;23.20;52.90;;;;;;5096798;28;19920;-61
2022/09/16 11:05:14;;;;;;;;;;;23.20;52.90;;;;;;5097032;28;19919;-61
2022/09/16 11:07:42;;;;;;;;;;;23.20;52.90;;;;;;5133633;27;19926;-61
2022/09/16 11:10:14;;;;;;;;;;;23.20;52.90;;;;;;5096540;28;19920;-61
2022/09/16 11:12:50;;;;;;;;;;;23.20;52.90;;;;;;5132074;27;19965;-60
2022/09/16 11:15:20;;;;;;;;;;;23.20;52.90;;;;;;5113921;28;19919;-60
2022/09/16 11:17:50;;;;;;;;;;;23.20;52.90;;;;;;5098567;28;19919;-60
2022/09/16 11:20:28;;;;;;;;;;;23.30;53.00;;;;;;5096440;28;19926;-61
2022/09/16 11:22:57;;;;;;;;;;;23.30;53.00;;;;;;5098431;28;20273;-61
2022/09/16 11:25:33;;;;;;;;;;;23.30;53.00;;;;;;5096731;28;20336;-61
2022/09/16 11:28:03;;;;;;;;;;;23.20;52.90;;;;;;5114394;28;19927;-60
2022/09/16 11:30:30;;;;;;;;;;;23.20;52.90;;;;;;5132853;27;20303;-61
2022/09/16 11:33:03;;;;;;;;;;;23.20;52.90;;;;;;5113137;28;20447;-61
2022/09/16 11:35:43;;;;;;;;;;;23.20;52.90;;;;;;5097060;28;20014;-60
2022/09/16 11:38:13;;;;;;;;;;;23.20;52.90;;;;;;5096789;28;20446;-60
2022/09/16 11:40:44;;;;;;;;;;;23.30;53.00;;;;;;5114457;28;19920;-61
2022/09/16 11:43:18;;;;;;;;;;;23.20;52.90;;;;;;5133293;27;19920;-61
2022/09/16 11:45:47;;;;;;;;;;;23.20;52.90;;;;;;5095662;28;19920;-61
2022/09/16 11:48:19;;;;;;;;;;;23.30;53.00;;;;;;5097339;28;19927;-60
2022/09/16 11:50:48;;;;;;;;;;;23.20;52.90;;;;;;5096235;28;19947;-61
2022/09/16 11:53:22;;;;;;;;;;;23.30;53.00;;;;;;5093611;28;19971;-60
2022/09/16 11:55:51;;;;;;;;;;;23.20;53.50;;;;;;5095807;28;19919;-61
2022/09/16 11:58:22;;;;;;;;;;;23.20;52.90;;;;;;5128140;27;19920;-61
2022/09/16 12:00:49;;;;;;;;;;;23.20;52.90;;;;;;5115210;27;19921;-61
2022/09/16 12:03:18;;;;;;;;;;;23.30;52.90;;;;;;5074230;28;20022;-61
2022/09/16 12:05:48;;;;;;;;;;;23.30;53.00;;;;;;5111718;28;19920;-61
2022/09/16 12:08:21;;;;;;;;;;;23.30;53.00;;;;;;5078126;28;19930;-61
2022/09/16 12:10:49;;;;;;;;;;;23.20;52.90;;;;;;5093572;28;19993;-60
2022/09/16 12:13:16;;;;;;;;;;;23.20;52.90;;;;;;5095946;28;19919;-60
2022/09/16 12:15:45;;;;;;;;;;;23.20;52.90;;;;;;5094772;28;19919;-60
2022/09/16 12:18:13;;;;;;;;;;;23.20;52.90;;;;;;5094477;28;19942;-61
2022/09/16 12:20:41;;;;;;;;;;;23.30;52.90;;;;;;5128955;27;20018;-61
2022/09/16 12:23:09;;;;;;;;;;;23.20;52.90;;;;;;5131320;27;20035;-61
2022/09/16 12:25:38;;;;;;;;;;;23.20;52.90;;;;;;5094378;28;20056;-61
2022/09/16 12:28:06;;;;;;;;;;;23.20;52.90;;;;;;5095782;28;20375;-60
2022/09/16 12:30:34;;;;;;;;;;;23.30;52.90;;;;;;5112587;28;19973;-60
2022/09/16 12:33:05;;;;;;;;;;;23.20;52.90;;;;;;5096231;28;19920;-60
2022/09/16 12:35:34;;;;;;;;;;;23.20;52.90;;;;;;5128957;27;19923;-61
2022/09/16 12:38:01;;;;;;;;;;;23.30;52.90;;;;;;5127951;27;19919;-60
2022/09/16 12:40:32;;;;;;;;;;;23.30;52.90;;;;;;5096562;28;19924;-60
2022/09/16 12:43:04;;;;;;;;;;;23.20;52.90;;;;;;5113175;28;20002;-60
2022/09/16 12:45:44;;;;;;;;;;;23.30;52.90;;;;;;5095580;28;19955;-61
2022/09/16 12:48:20;;;;;;;;;;;23.30;52.90;;;;;;5111809;28;19920;-60
2022/09/16 12:50:49;;;;;;;;;;;23.20;52.90;;;;;;5094348;28;19924;-61
2022/09/16 12:53:32;;;;;;;;;;;23.30;52.90;;;;;;5093562;28;19927;-59
2022/09/16 12:56:02;;;;;;;;;;;23.20;52.90;;;;;;5093770;28;20612;-60
2022/09/16 12:58:42;;;;;;;;;;;23.20;52.90;;;;;;5094143;28;19970;-60
2022/09/16 13:01:13;;;;;;;;;;;23.20;52.90;;;;;;5095471;28;19926;-61
2022/09/16 13:03:42;;;;;;;;;;;23.30;52.90;;;;;;5115418;28;19920;-61
2022/09/16 13:06:14;;;;;;;;;;;23.20;52.90;;;;;;5097605;28;20018;-61
2022/09/16 13:08:41;;;;;;;;;;;23.20;52.90;;;;;;5094240;28;20006;-61
2022/09/16 13:11:08;;;;;;;;;;;23.30;52.90;;;;;;5096688;28;19972;-61
2022/09/16 13:13:35;;;;;;;;;;;23.20;52.80;;;;;;5094310;28;20355;-61
2022/09/16 13:16:02;;;;;;;;;;;23.30;52.90;;;;;;5094375;28;19963;-61
2022/09/16 13:18:41;;;;;;;;;;;23.20;52.80;;;;;;5096415;28;19919;-61
2022/09/16 13:21:12;;;;;;;;;;;23.30;52.90;;;;;;5110398;28;19926;-61
2022/09/16 13:23:40;;;;;;;;;;;23.20;52.90;;;;;;5095128;28;19919;-61
2022/09/16 13:26:07;;;;;;;;;;;23.30;52.90;;;;;;5096836;28;20289;-61
2022/09/16 13:28:37;;;;;;;;;;;23.30;52.90;;;;;;5094615;28;19920;-60
2022/09/16 13:31:16;;;;;;;;;;;23.20;52.90;;;;;;5112450;28;19920;-61
2022/09/16 13:33:45;;;;;;;;;;;23.20;52.80;;;;;;5095417;28;20002;-61
2022/09/16 13:36:16;;;;;;;;;;;23.30;52.90;;;;;;5099276;28;19927;-62
2022/09/16 13:38:43;;;;;;;;;;;23.30;52.90;;;;;;5100733;28;19920;-60
2022/09/16 13:41:10;;;;;;;;;;;23.20;52.90;;;;;;5099829;28;19927;-60
2022/09/16 13:43:38;;;;;;;;;;;23.20;52.90;;;;;;5099455;28;19931;-60
2022/09/16 13:46:08;;;;;;;;;;;23.30;52.90;;;;;;5100821;28;19967;-60
2022/09/16 13:48:36;;;;;;;;;;;23.20;52.90;;;;;;5097034;28;20276;-60
2022/09/16 13:51:06;;;;;;;;;;;23.20;52.90;;;;;;5100550;28;20264;-61
2022/09/16 13:53:33;;;;;;;;;;;23.20;52.90;;;;;;5118498;28;19964;-61
2022/09/16 13:56:00;;;;;;;;;;;23.20;52.90;;;;;;5098493;28;19920;-61
2022/09/16 13:58:28;;;;;;;;;;;23.30;52.90;;;;;;5100635;28;20019;-61
2022/09/16 14:00:58;;;;;;;;;;;23.20;52.90;;;;;;5084036;28;19980;-61
2022/09/16 14:03:33;;;;;;;;;;;23.30;52.90;;;;;;5080669;28;20010;-61
2022/09/16 14:06:14;;;;;;;;;;;23.30;52.90;;;;;;5098116;28;19984;-61
2022/09/16 14:08:43;;;;;;;;;;;23.20;52.90;;;;;;5075567;28;19966;-61
2022/09/16 14:11:11;;;;;;;;;;;23.20;52.90;;;;;;5096243;28;19924;-60
2022/09/16 14:13:39;;;;;;;;;;;23.20;52.90;;;;;;5118278;28;19924;-61
2022/09/16 14:16:09;;;;;;;;;;;23.30;53.00;;;;;;5098946;28;19965;-61
2022/09/16 14:18:36;;;;;;;;;;;23.20;52.90;;;;;;5115626;28;19965;-61
2022/09/16 14:21:03;;;;;;;;;;;23.20;52.90;;;;;;5116233;28;19920;-61
2022/09/16 14:23:31;;;;;;;;;;;23.30;52.90;;;;;;5099832;28;19943;-61